createdAt,value
2023-01-22T00:01:49.516Z,-0.13
2023-01-22T00:06:53.763Z,-0.11
2023-01-22T00:11:57.914Z,0.08
2023-01-22T00:17:00.835Z,0.01
2023-01-22T00:22:05.100Z,-0.07
2023-01-22T00:27:08.173Z,0.19
2023-01-22T00:32:11.235Z,-0.06
2023-01-22T00:37:17.954Z,0.24
2023-01-22T00:42:20.883Z,0.26
2023-01-22T00:47:23.791Z,0.18
2023-01-22T00:52:28.337Z,-0.01
2023-01-22T00:57:31.260Z,-0.09
2023-01-22T01:02:55.529Z,-0.25
2023-01-22T01:07:59.840Z,-0.10
2023-01-22T01:13:02.800Z,-0.02
2023-01-22T01:18:06.017Z,-0.01
2023-01-22T01:23:10.326Z,0.01
2023-01-22T01:28:13.229Z,0.07
2023-01-22T01:33:16.139Z,0.14
2023-01-22T01:38:20.396Z,0.16
2023-01-22T01:43:23.875Z,0.02
2023-01-22T01:48:32.446Z,0.03
2023-01-22T01:53:37.663Z,0.15
2023-01-22T01:58:43.335Z,0.09
2023-01-22T02:03:47.860Z,0.06
2023-01-22T02:08:53.758Z,0.17
2023-01-22T02:14:02.793Z,-0.21
2023-01-22T02:19:05.731Z,-0.13
2023-01-22T02:24:11.937Z,-0.02
2023-01-22T02:29:15.957Z,0.08
2023-01-22T02:34:19.417Z,-0.03
2023-01-22T02:39:24.707Z,-0.08
2023-01-22T02:44:27.731Z,0.18
2023-01-22T02:49:30.644Z,0.29
2023-01-22T02:54:35.072Z,-0.02
2023-01-22T02:59:38.049Z,-0.02
2023-01-22T03:04:41.216Z,-0.05
2023-01-22T03:09:47.097Z,0.26
2023-01-22T03:15:07.352Z,0.44
2023-01-22T03:20:30.007Z,0.10
2023-01-22T03:25:34.325Z,0.25
2023-01-22T03:30:37.590Z,0.36
2023-01-22T03:35:40.761Z,0.40
2023-01-22T03:40:51.062Z,0.34
2023-01-22T03:45:55.128Z,0.15
2023-01-22T03:51:05.545Z,0.14
2023-01-22T03:56:12.526Z,0.35
2023-01-22T04:01:18.186Z,0.44
2023-01-22T04:06:22.292Z,0.37
2023-01-22T04:11:26.692Z,0.52
2023-01-22T04:16:30.096Z,0.29
2023-01-22T04:22:00.118Z,0.46
2023-01-22T04:27:05.099Z,0.44
2023-01-22T04:32:08.095Z,0.29
2023-01-22T04:37:25.887Z,0.42
2023-01-22T04:42:30.318Z,0.55
2023-01-22T04:47:33.360Z,0.68
2023-01-22T04:52:36.306Z,0.75
2023-01-22T04:57:41.308Z,0.53
2023-01-22T05:02:44.236Z,0.63
2023-01-22T05:07:47.860Z,0.23
2023-01-22T05:12:52.635Z,0.39
2023-01-22T05:17:55.785Z,0.26
2023-01-22T05:22:58.719Z,0.28
2023-01-22T05:28:04.339Z,0.12
2023-01-22T05:33:20.110Z,-0.08
2023-01-22T05:38:23.223Z,-0.09
2023-01-22T05:43:27.654Z,0.29
2023-01-22T05:48:36.347Z,0.09
2023-01-22T05:53:47.947Z,0.16
2023-01-22T05:58:53.056Z,0.16
2023-01-22T06:03:56.093Z,0.35
2023-01-22T06:09:00.881Z,0.30
2023-01-22T06:14:10.541Z,0.31
2023-01-22T06:19:13.605Z,0.17
2023-01-22T06:24:20.992Z,0.30
2023-01-22T06:29:25.321Z,0.24
2023-01-22T06:34:28.917Z,0.44
2023-01-22T06:39:35.612Z,0.43
2023-01-22T06:44:47.835Z,0.39
2023-01-22T06:49:51.117Z,0.27
2023-01-22T06:54:54.093Z,0.20
2023-01-22T06:59:59.111Z,0.36
2023-01-22T07:05:02.035Z,0.14
2023-01-22T07:10:05.521Z,0.17
2023-01-22T07:15:10.348Z,0.27
2023-01-22T07:20:13.592Z,0.30
2023-01-22T07:25:16.854Z,0.23
2023-01-22T07:30:21.448Z,-0.01
2023-01-22T07:35:24.329Z,0.07
2023-01-22T07:40:28.016Z,0.37
2023-01-22T07:45:32.410Z,0.43
2023-01-22T07:50:36.883Z,0.25
2023-01-22T07:55:41.557Z,0.03
2023-01-22T08:00:45.824Z,-0.02
2023-01-22T08:05:48.738Z,0.25
2023-01-22T08:10:51.605Z,0.26
2023-01-22T08:15:56.125Z,0.06
2023-01-22T08:21:01.053Z,0.21
2023-01-22T08:26:05.044Z,0.17
2023-01-22T08:31:16.459Z,0.27
2023-01-22T08:36:27.963Z,0.40
2023-01-22T08:41:30.886Z,0.62
2023-01-22T08:46:38.527Z,0.59
2023-01-22T08:51:41.464Z,0.57
2023-01-22T08:56:44.403Z,0.68
2023-01-22T09:01:48.924Z,0.85
2023-01-22T09:06:51.857Z,1.01
2023-01-22T09:11:54.720Z,0.97
2023-01-22T09:16:58.948Z,0.85
2023-01-22T09:22:06.305Z,0.85
2023-01-22T09:27:12.061Z,1.07
2023-01-22T09:32:16.303Z,0.87
2023-01-22T09:37:19.279Z,0.87
2023-01-22T09:42:27.207Z,1.01
2023-01-22T09:47:35.319Z,0.69
2023-01-22T09:52:40.263Z,0.76
2023-01-22T09:57:47.659Z,0.48
2023-01-22T10:02:56.302Z,0.48
2023-01-22T10:08:05.252Z,0.76
2023-01-22T10:13:15.921Z,0.92
2023-01-22T10:18:35.494Z,1.07
2023-01-22T10:23:38.647Z,0.81
2023-01-22T10:28:45.343Z,1.29
2023-01-22T10:33:56.703Z,0.89
2023-01-22T10:39:09.833Z,0.68
2023-01-22T10:44:20.738Z,0.98
2023-01-22T10:49:26.653Z,0.52
2023-01-22T10:54:33.297Z,0.47
2023-01-22T10:59:36.581Z,0.78
2023-01-22T11:04:40.815Z,0.57
2023-01-22T11:09:47.688Z,0.72
2023-01-22T11:15:03.481Z,0.54
2023-01-22T11:20:21.266Z,1.05
2023-01-22T11:25:25.108Z,1.72
2023-01-22T11:30:51.320Z,1.19
2023-01-22T11:36:01.359Z,1.44
2023-01-22T11:41:18.837Z,1.18
2023-01-22T11:46:37.064Z,0.79
2023-01-22T11:51:56.095Z,0.97
2023-01-22T11:57:12.629Z,1.35
2023-01-22T12:02:31.096Z,1.52
2023-01-22T12:07:52.116Z,1.45
2023-01-22T12:13:04.431Z,1.13
2023-01-22T12:18:42.566Z,1.37
2023-01-22T12:23:52.666Z,1.38
2023-01-22T12:29:01.260Z,0.90
2023-01-22T12:34:13.105Z,0.82
2023-01-22T12:39:27.113Z,1.01
2023-01-22T12:44:42.867Z,1.27
2023-01-22T12:49:48.450Z,1.27
2023-01-22T12:54:56.400Z,0.77
2023-01-22T13:00:10.254Z,1.19
2023-01-22T13:05:20.852Z,1.39
2023-01-22T13:10:30.170Z,1.43
2023-01-22T13:15:37.277Z,1.34
2023-01-22T13:21:02.720Z,0.92
2023-01-22T13:26:07.173Z,0.97
2023-01-22T13:31:17.805Z,0.74
2023-01-22T13:36:20.785Z,0.73
2023-01-22T13:41:31.336Z,0.96
2023-01-22T13:46:38.479Z,0.90
2023-01-22T13:51:42.983Z,0.63
2023-01-22T13:56:47.290Z,0.65
2023-01-22T14:01:50.964Z,0.56
2023-01-22T14:06:53.923Z,0.36
2023-01-22T14:11:58.832Z,0.48
2023-01-22T14:17:01.773Z,0.72
2023-01-22T14:22:04.724Z,0.51
2023-01-22T14:27:09.131Z,0.66
2023-01-22T14:32:12.010Z,0.56
2023-01-22T14:37:16.547Z,0.52
2023-01-22T14:42:20.817Z,0.11
2023-01-22T14:47:23.745Z,0.46
2023-01-22T14:52:26.659Z,0.46
2023-01-22T14:57:30.905Z,0.35
2023-01-22T15:02:35.501Z,0.15
2023-01-22T15:07:39.093Z,0.20
2023-01-22T15:12:48.065Z,0.16
2023-01-22T15:17:51.632Z,0.12
2023-01-22T15:22:54.606Z,0.11
2023-01-22T15:27:58.858Z,0.07
2023-01-22T15:33:01.731Z,0.20
2023-01-22T15:38:05.373Z,0.17
2023-01-22T15:43:10.398Z,0.27
2023-01-22T15:48:15.805Z,0.22
2023-01-22T15:53:19.574Z,0.34
2023-01-22T15:58:23.874Z,0.30
2023-01-22T16:03:26.784Z,0.30
2023-01-22T16:08:29.760Z,0.25
2023-01-22T16:13:34.459Z,0.24
2023-01-22T16:18:42.542Z,0.27
2023-01-22T16:23:47.048Z,0.25
2023-01-22T16:28:52.923Z,0.21
2023-01-22T16:33:58.471Z,0.12
2023-01-22T16:39:01.728Z,0.16
2023-01-22T16:44:10.275Z,0.22
2023-01-22T16:49:15.550Z,0.32
2023-01-22T16:54:21.757Z,0.25
2023-01-22T16:59:27.052Z,0.43
2023-01-22T17:04:30.753Z,0.20
2023-01-22T17:09:36.796Z,0.26
2023-01-22T17:14:41.187Z,0.37
2023-01-22T17:19:44.048Z,0.38
2023-01-22T17:24:47.718Z,0.19
2023-01-22T17:29:52.029Z,0.48
2023-01-22T17:34:54.921Z,0.09
2023-01-22T17:39:57.761Z,0.26
2023-01-22T17:45:02.071Z,0.34
2023-01-22T17:50:05.397Z,0.46
2023-01-22T17:55:08.927Z,0.61
2023-01-22T18:00:17.449Z,0.53
2023-01-22T18:05:21.195Z,0.28
2023-01-22T18:10:24.214Z,0.20
2023-01-22T18:15:28.511Z,0.27
2023-01-22T18:20:32.162Z,0.29
2023-01-22T18:25:35.057Z,0.38
2023-01-22T18:30:39.418Z,0.42
2023-01-22T18:35:43.337Z,0.43
2023-01-22T18:40:46.178Z,0.49
2023-01-22T18:45:50.496Z,0.56
2023-01-22T18:50:53.912Z,0.61
2023-01-22T18:56:00.365Z,0.42
2023-01-22T19:01:11.687Z,0.50
2023-01-22T19:06:16.840Z,0.35
2023-01-22T19:11:19.839Z,0.54
2023-01-22T19:16:25.274Z,0.70
2023-01-22T19:21:28.719Z,0.83
2023-01-22T19:26:33.524Z,1.00
2023-01-22T19:31:39.905Z,1.02
2023-01-22T19:36:42.890Z,0.99
2023-01-22T19:41:45.800Z,0.71
2023-01-22T19:46:50.093Z,0.72
2023-01-22T19:51:53.203Z,0.74
2023-01-22T19:56:56.384Z,0.99
2023-01-22T20:02:00.696Z,0.65
2023-01-22T20:07:05.886Z,1.01
2023-01-22T20:12:11.260Z,0.98
2023-01-22T20:17:16.736Z,1.11
2023-01-22T20:22:19.618Z,1.17
2023-01-22T20:27:22.477Z,1.26
2023-01-22T20:32:28.628Z,1.15
2023-01-22T20:37:32.093Z,1.23
2023-01-22T20:42:34.984Z,1.32
2023-01-22T20:47:39.297Z,0.80
2023-01-22T20:52:42.187Z,0.75
2023-01-22T20:57:45.056Z,0.93
2023-01-22T21:02:51.762Z,1.02
2023-01-22T21:07:54.667Z,0.94
2023-01-22T21:12:57.539Z,1.06
2023-01-22T21:18:01.807Z,1.12
2023-01-22T21:23:04.788Z,1.19
2023-01-22T21:28:07.724Z,1.23
2023-01-22T21:33:11.938Z,1.13
2023-01-22T21:38:14.799Z,1.20
2023-01-22T21:43:35.203Z,1.16
2023-01-22T21:48:39.449Z,1.05
2023-01-22T21:53:42.344Z,0.81
2023-01-22T21:58:45.598Z,0.95
2023-01-22T22:03:50.114Z,0.66
2023-01-22T22:08:53.040Z,0.73
2023-01-22T22:13:56.684Z,0.97
2023-01-22T22:19:01.220Z,0.97
2023-01-22T22:24:04.774Z,0.77
2023-01-22T22:29:09.257Z,0.79
2023-01-22T22:34:13.512Z,0.97
2023-01-22T22:39:16.425Z,0.88
2023-01-22T22:44:19.347Z,0.75
2023-01-22T22:49:23.612Z,0.96
2023-01-22T22:54:27.392Z,0.68
2023-01-22T22:59:30.269Z,1.03
2023-01-22T23:04:35.257Z,1.08
2023-01-22T23:09:38.444Z,0.95
2023-01-22T23:14:41.315Z,1.08
2023-01-22T23:19:45.544Z,0.91
2023-01-22T23:24:48.451Z,0.98
2023-01-22T23:29:52.120Z,0.63
2023-01-22T23:34:56.409Z,0.94
2023-01-22T23:39:59.327Z,0.86
2023-01-22T23:45:02.235Z,0.56
2023-01-22T23:50:08.662Z,0.55
2023-01-22T23:55:11.911Z,0.76
